TNCASKCG

Guest
Details From TNCA - REINA BEATRIX INTL
To SKCG - RAFAEL NUNEZ
Flight Number -
Tags generated
Created
Modified
Stats Distance 347 nm / 642 km
Max Altitude 34,000 ft / 10,363 m
Waypoints 8
Social Downloads 0
Likes 0
Share VATSIM

Download

Looking for another format? Having issues loading an existing format? Contact us
Advertisement - Login to hide

Notes

Basic altitude profile: - Ascent Rate: 2500ft/min - Ascent Speed: 250kts - Cruise Altitude: 35000ft - Cruise Speed: 420kts - Descent Rate: 1500ft/min - Descent Speed: 250kts Options: - Use NATs: yes - Use PACOTS: yes - Use low airways: yes - Use high airways: yes

Route

TNCA DATOR A574 GILGA UA574 STA SKCG

ID Type Via Altitude Latitude Longitude Leg Dist Tot Dist Heading (true) Name
O TNCA APT - 0 ft / 0 m 12.50139˚ -70.01522˚ - 0 nm - REINA BEATRIX INTL
DATOR FIX - 5,600 ft / 1,707 m 12.41000˚ -70.27000˚ 15 nm 15 nm 250° / 250° -
GILGA FIX A574 (AWY-LO) 24,000 ft / 7,315 m 12.13519˚ -71.10142˚ 51 nm 67 nm 251° / 251° -
HACHA FIX UA574 (AWY-HI) 34,000 ft / 10,363 m 11.68583˚ -72.45361˚ 83 nm 151 nm 251° / 251° -
RHC VOR UA574 (AWY-HI) 34,000 ft / 10,363 m 11.52750˚ -72.91750˚ 28 nm 180 nm 251° / 251° RIOHACHA VOR-DME
NERVA FIX UA574 (AWY-HI) 24,000 ft / 7,315 m 11.19972˚ -73.68778˚ 49 nm 229 nm 247° / 246° -
STA VOR UA574 (AWY-HI) 24,500 ft / 7,468 m 10.96454˚ -74.23837˚ 35 nm 265 nm 247° / 246° SANTA MARTA VOR-DME
O SKCG APT - 0 ft / 0 m 10.44238˚ -75.51296˚ 81 nm 346 nm 247° / 247° RAFAEL NUNEZ

Altitude Profile

Advertisement - Login to hide

Weather


0- 5 10 15 20 25 30 35+ Temperature / ° C

Clouds and Precipitation
Forecast for 2017-12-14 18:00 UTC. Updated 29 minutes ago

Ground ~20,000 ft ~40,000 ft Winds

TNCA

Details ICAO TNCA (AUA)
Name REINA BEATRIX INTL
Region Caribbean Netherlands, Aruba, Curaçao, Sint Maarten
Timezone America/Aruba (UTC-4.0)
Stats Elevation 60 ft / 18 m (AMSL)
Location 12.501389° -70.015220°
Runways 1
Magnetic Variation 10.770° W

METAR

TNCA 141300Z 10014KT 9999 SCT017 28/23 Q1014 NOSIG

Decode

TAF

Not found

Departure Runways

ID Width Length Bearing (true) Bearing (mag) Surface Threshold Offset Overrun Length
11 148 ft / 45 m 8,998 ft / 2,743 m 104.08° 114.85° Asphalt 0 ft / 0 m 184 ft / 56 m
29 148 ft / 45 m 8,998 ft / 2,743 m 284.09° 294.86° Asphalt 0 ft / 0 m 184 ft / 56 m

SKCG

Details ICAO SKCG (CTG)
Name RAFAEL NUNEZ
Region Colombia
Timezone America/Bogota (UTC-5.0)
Stats Elevation 4 ft / 1 m (AMSL)
Location 10.442379° -75.512961°
Runways 1
Magnetic Variation 7.204° W

METAR

SKCG 141300Z 10003KT 030V110 9999 FEW015 27/24 A2987

Decode

TAF

Not found

Destination Runways

ID Width Length Bearing (true) Bearing (mag) Surface Threshold Offset Overrun Length
01 148 ft / 45 m 8,584 ft / 2,616 m 2.31° 9.51° Asphalt 0 ft / 0 m 180 ft / 55 m
19 148 ft / 45 m 8,584 ft / 2,616 m 182.31° 189.51° Asphalt 190 ft / 58 m 0 ft / 0 m

Popular Alternatives